Eutawville, SC (29048)

2:33 AM EST on February 06, 2016 (GMT -0500)
Dingle Pond | | Change Station
CLOSE
Current Station
Personal Weather Station
Location: Summerton, SC
Elevation: 95 ft
Nearby Weather Stations
Active Advisory: Flood Warning

Elev 95 ft 33.51 °N, 80.41 °W | Updated 4 seconds ago

Clear
Clear
32.5 °F
Feels Like 32 °F
N
0.0
Wind Variable Wind from South
Gusts 0.7 mph

Today
High -- | Low -- °F
--% Chance of Precip.
Yesterday
High -- | Low -- °F
Precip. -- in
Pressure 30.38 in
Visibility 10.0 miles
Clouds Clear
Windchill 32 °F
Dew Point 27 °F
Humidity 81%
Rainfall 0.00 in
Snow Depth Not available.
7:13 AM 5:57 PM
Waning Crescent, 7% visible
METAR KMNI 060715Z AUTO 00000KT 10SM CLR M01/M04 A3038 RMK AO2
Pressure 30.38 in
Visibility 10.0 miles
Clouds Clear
Windchill 32 °F
Dew Point 27 °F
Humidity 81%
Rainfall 0.00 in
Snow Depth Not available.
7:13 AM 5:57 PM
Waning Crescent, 7% visible
METAR KMNI 060715Z AUTO 00000KT 10SM CLR M01/M04 A3038 RMK AO2

10-Day Weather Forecast

Almanac

Astronomy

Feb. 06, 2016 Rise Set
Actual Time
Civil Twilight
Nautical Twilight
Astronomical Twilight
Moon
Length of Visible Light
Length of Day
Tomorrow will be .
, % of the Moon is Illuminated

Today's Extremes

State Highs State Lows

Community

WunderPhotos

Upload Photos

1,890,933 photos uploaded!

WunderBlog® & News

Nearby

Air Quality

  Air Quality AQ Index Pollutant
Not available.

Snow Depth

Station Depth Elevation

Earthquake Activity

City Distance Mag. Time & Date
Minimum magnitude displayed is 2.5.

Coastal Water Temperatures

Place Temperature

Stations

Nearby Weather Stations

Station Location Temp. Windchill Dew Point Humidity Wind Precip. Elev Updated Type
                   

Watches & Warnings

Flood Warning
Issued: 9:38 PM EST Feb. 5, 2016 – National Weather Service

The Flood Warning continues for
the North Fork edisto river at Orangeburg.
* Until Monday evening... or until the warning is cancelled.
* At 9 PM Friday the stage was 8.2 feet.
* Flood stage is 8 feet.
* Minor flooding is occurring and minor flooding is forecast.
* Forecast... the river at Orangeburg will remain near
crest around 8.2 feet through Saturday.
* At 8 feet... some minor flooding occurs along the boardwalk at
edisto gardens. Downstream from the Highway 301 bridge... some roads
off Chiquita street near the river flood.


Lat... Lon 3355 8092 3342 8082 3336 8091 3354 8100